sensor_id;sensor_type;location;lat;lon;timestamp;P1;durP1;ratioP1;P2;durP2;ratioP2
20589;SDS011;10453;50.810;12.540;2023-01-29T00:02:59;24.10;;;15.13;;
20589;SDS011;10453;50.810;12.540;2023-01-29T00:07:16;25.93;;;15.60;;
20589;SDS011;10453;50.810;12.540;2023-01-29T00:11:34;25.57;;;15.93;;
20589;SDS011;10453;50.810;12.540;2023-01-29T00:15:55;24.42;;;15.35;;
20589;SDS011;10453;50.810;12.540;2023-01-29T00:20:13;21.17;;;15.13;;
20589;SDS011;10453;50.810;12.540;2023-01-29T00:24:31;18.60;;;12.93;;
20589;SDS011;10453;50.810;12.540;2023-01-29T00:28:48;20.97;;;13.07;;
20589;SDS011;10453;50.810;12.540;2023-01-29T00:33:05;17.97;;;12.53;;
20589;SDS011;10453;50.810;12.540;2023-01-29T00:37:23;17.58;;;11.68;;
20589;SDS011;10453;50.810;12.540;2023-01-29T00:41:40;17.67;;;11.97;;
20589;SDS011;10453;50.810;12.540;2023-01-29T00:46:16;14.68;;;9.98;;
20589;SDS011;10453;50.810;12.540;2023-01-29T00:50:33;17.63;;;11.13;;
20589;SDS011;10453;50.810;12.540;2023-01-29T00:54:54;15.32;;;9.82;;
20589;SDS011;10453;50.810;12.540;2023-01-29T00:59:12;16.38;;;10.23;;
20589;SDS011;10453;50.810;12.540;2023-01-29T01:03:29;12.93;;;9.70;;
20589;SDS011;10453;50.810;12.540;2023-01-29T01:07:50;13.48;;;9.30;;
20589;SDS011;10453;50.810;12.540;2023-01-29T01:12:10;14.40;;;9.85;;
20589;SDS011;10453;50.810;12.540;2023-01-29T01:16:27;12.02;;;9.82;;
20589;SDS011;10453;50.810;12.540;2023-01-29T01:20:44;13.30;;;9.63;;
20589;SDS011;10453;50.810;12.540;2023-01-29T01:25:01;15.82;;;10.30;;
20589;SDS011;10453;50.810;12.540;2023-01-29T01:29:18;14.20;;;10.03;;
20589;SDS011;10453;50.810;12.540;2023-01-29T01:33:35;17.00;;;10.50;;
20589;SDS011;10453;50.810;12.540;2023-01-29T01:37:53;14.52;;;10.23;;
20589;SDS011;10453;50.810;12.540;2023-01-29T01:42:11;14.88;;;10.25;;
20589;SDS011;10453;50.810;12.540;2023-01-29T01:46:30;16.95;;;10.80;;
20589;SDS011;10453;50.810;12.540;2023-01-29T01:50:50;16.73;;;10.48;;
20589;SDS011;10453;50.810;12.540;2023-01-29T01:55:11;17.58;;;10.85;;
20589;SDS011;10453;50.810;12.540;2023-01-29T01:59:30;15.52;;;11.20;;
20589;SDS011;10453;50.810;12.540;2023-01-29T02:03:50;17.38;;;11.57;;
20589;SDS011;10453;50.810;12.540;2023-01-29T02:08:34;17.90;;;11.32;;
20589;SDS011;10453;50.810;12.540;2023-01-29T02:13:25;18.02;;;11.90;;
20589;SDS011;10453;50.810;12.540;2023-01-29T02:17:42;19.60;;;12.33;;
20589;SDS011;10453;50.810;12.540;2023-01-29T02:27:02;19.02;;;12.10;;
20589;SDS011;10453;50.810;12.540;2023-01-29T02:31:38;19.25;;;11.45;;
20589;SDS011;10453;50.810;12.540;2023-01-29T02:36:03;17.67;;;11.05;;
20589;SDS011;10453;50.810;12.540;2023-01-29T02:40:31;15.35;;;11.13;;
20589;SDS011;10453;50.810;12.540;2023-01-29T02:44:59;18.23;;;11.93;;
20589;SDS011;10453;50.810;12.540;2023-01-29T02:49:32;15.80;;;11.32;;
20589;SDS011;10453;50.810;12.540;2023-01-29T02:53:54;18.80;;;12.20;;
20589;SDS011;10453;50.810;12.540;2023-01-29T02:58:32;19.27;;;11.82;;
20589;SDS011;10453;50.810;12.540;2023-01-29T03:03:01;20.02;;;12.18;;
20589;SDS011;10453;50.810;12.540;2023-01-29T03:07:26;19.58;;;11.63;;
20589;SDS011;10453;50.810;12.540;2023-01-29T03:12:12;19.73;;;12.15;;
20589;SDS011;10453;50.810;12.540;2023-01-29T03:16:50;20.02;;;12.25;;
20589;SDS011;10453;50.810;12.540;2023-01-29T03:21:10;18.65;;;11.80;;
20589;SDS011;10453;50.810;12.540;2023-01-29T03:25:51;21.50;;;12.15;;
20589;SDS011;10453;50.810;12.540;2023-01-29T03:30:34;21.35;;;12.80;;
20589;SDS011;10453;50.810;12.540;2023-01-29T03:35:16;16.98;;;11.68;;
20589;SDS011;10453;50.810;12.540;2023-01-29T03:39:52;20.20;;;12.07;;
20589;SDS011;10453;50.810;12.540;2023-01-29T03:48:40;19.83;;;12.98;;
20589;SDS011;10453;50.810;12.540;2023-01-29T03:53:27;23.92;;;12.48;;
20589;SDS011;10453;50.810;12.540;2023-01-29T03:58:01;21.80;;;12.52;;
20589;SDS011;10453;50.810;12.540;2023-01-29T04:02:30;21.92;;;12.55;;
20589;SDS011;10453;50.810;12.540;2023-01-29T04:06:55;19.90;;;12.48;;
20589;SDS011;10453;50.810;12.540;2023-01-29T04:11:16;19.45;;;12.40;;
20589;SDS011;10453;50.810;12.540;2023-01-29T04:15:38;18.65;;;11.85;;
20589;SDS011;10453;50.810;12.540;2023-01-29T04:19:59;21.13;;;12.73;;
20589;SDS011;10453;50.810;12.540;2023-01-29T04:24:17;18.52;;;12.15;;
20589;SDS011;10453;50.810;12.540;2023-01-29T04:28:43;18.13;;;11.50;;
20589;SDS011;10453;50.810;12.540;2023-01-29T04:37:44;21.17;;;12.18;;
20589;SDS011;10453;50.810;12.540;2023-01-29T04:42:18;18.55;;;11.80;;
20589;SDS011;10453;50.810;12.540;2023-01-29T04:51:48;18.67;;;12.05;;
20589;SDS011;10453;50.810;12.540;2023-01-29T04:56:25;24.83;;;13.10;;
20589;SDS011;10453;50.810;12.540;2023-01-29T05:00:49;21.30;;;12.68;;
20589;SDS011;10453;50.810;12.540;2023-01-29T05:05:09;20.50;;;13.32;;
20589;SDS011;10453;50.810;12.540;2023-01-29T05:09:28;22.05;;;13.48;;
20589;SDS011;10453;50.810;12.540;2023-01-29T05:13:46;19.35;;;12.40;;
20589;SDS011;10453;50.810;12.540;2023-01-29T05:18:05;21.42;;;13.63;;
20589;SDS011;10453;50.810;12.540;2023-01-29T05:22:24;21.38;;;12.93;;
20589;SDS011;10453;50.810;12.540;2023-01-29T05:26:43;23.77;;;13.75;;
20589;SDS011;10453;50.810;12.540;2023-01-29T05:31:20;20.48;;;13.40;;
20589;SDS011;10453;50.810;12.540;2023-01-29T05:35:37;24.95;;;14.20;;
20589;SDS011;10453;50.810;12.540;2023-01-29T05:39:55;25.60;;;14.43;;
20589;SDS011;10453;50.810;12.540;2023-01-29T05:44:12;26.13;;;14.17;;
20589;SDS011;10453;50.810;12.540;2023-01-29T05:48:29;25.95;;;14.48;;
20589;SDS011;10453;50.810;12.540;2023-01-29T05:52:47;23.50;;;14.88;;
20589;SDS011;10453;50.810;12.540;2023-01-29T05:57:04;26.07;;;15.47;;
20589;SDS011;10453;50.810;12.540;2023-01-29T06:01:23;25.33;;;15.30;;
20589;SDS011;10453;50.810;12.540;2023-01-29T06:05:41;24.80;;;15.10;;
20589;SDS011;10453;50.810;12.540;2023-01-29T06:09:58;27.03;;;15.57;;
20589;SDS011;10453;50.810;12.540;2023-01-29T06:14:15;28.57;;;15.87;;
20589;SDS011;10453;50.810;12.540;2023-01-29T06:18:32;28.63;;;16.03;;
20589;SDS011;10453;50.810;12.540;2023-01-29T06:22:50;27.35;;;15.45;;
20589;SDS011;10453;50.810;12.540;2023-01-29T06:27:07;31.67;;;19.23;;
20589;SDS011;10453;50.810;12.540;2023-01-29T06:31:25;29.30;;;17.37;;
20589;SDS011;10453;50.810;12.540;2023-01-29T06:35:55;31.58;;;18.10;;
20589;SDS011;10453;50.810;12.540;2023-01-29T06:40:15;30.02;;;17.77;;
20589;SDS011;10453;50.810;12.540;2023-01-29T06:44:33;30.73;;;17.45;;
20589;SDS011;10453;50.810;12.540;2023-01-29T06:48:50;34.43;;;20.47;;
20589;SDS011;10453;50.810;12.540;2023-01-29T06:53:07;29.75;;;17.20;;
20589;SDS011;10453;50.810;12.540;2023-01-29T06:57:27;31.48;;;17.67;;
20589;SDS011;10453;50.810;12.540;2023-01-29T07:01:44;30.95;;;18.55;;
20589;SDS011;10453;50.810;12.540;2023-01-29T07:06:02;33.55;;;20.15;;
20589;SDS011;10453;50.810;12.540;2023-01-29T07:10:20;30.25;;;18.60;;
20589;SDS011;10453;50.810;12.540;2023-01-29T07:14:38;32.45;;;18.08;;
20589;SDS011;10453;50.810;12.540;2023-01-29T07:18:55;34.33;;;21.50;;
20589;SDS011;10453;50.810;12.540;2023-01-29T07:23:12;33.47;;;19.73;;
20589;SDS011;10453;50.810;12.540;2023-01-29T07:31:47;39.08;;;20.77;;
20589;SDS011;10453;50.810;12.540;2023-01-29T07:36:07;32.70;;;18.67;;
20589;SDS011;10453;50.810;12.540;2023-01-29T07:40:25;32.15;;;19.20;;
20589;SDS011;10453;50.810;12.540;2023-01-29T07:44:43;33.93;;;20.00;;
20589;SDS011;10453;50.810;12.540;2023-01-29T07:49:00;32.57;;;19.60;;
20589;SDS011;10453;50.810;12.540;2023-01-29T07:53:17;33.63;;;20.07;;
20589;SDS011;10453;50.810;12.540;2023-01-29T07:57:34;33.40;;;20.37;;
20589;SDS011;10453;50.810;12.540;2023-01-29T08:01:52;52.17;;;26.55;;
20589;SDS011;10453;50.810;12.540;2023-01-29T08:06:09;81.50;;;38.87;;
20589;SDS011;10453;50.810;12.540;2023-01-29T08:10:26;56.03;;;29.30;;
20589;SDS011;10453;50.810;12.540;2023-01-29T08:14:44;42.20;;;22.77;;
20589;SDS011;10453;50.810;12.540;2023-01-29T08:19:01;36.07;;;20.60;;
20589;SDS011;10453;50.810;12.540;2023-01-29T08:23:18;30.00;;;19.83;;
20589;SDS011;10453;50.810;12.540;2023-01-29T08:27:35;35.47;;;20.83;;
20589;SDS011;10453;50.810;12.540;2023-01-29T08:31:52;27.73;;;17.93;;
20589;SDS011;10453;50.810;12.540;2023-01-29T08:36:10;30.70;;;18.93;;
20589;SDS011;10453;50.810;12.540;2023-01-29T08:40:27;29.10;;;18.53;;
20589;SDS011;10453;50.810;12.540;2023-01-29T08:44:49;27.50;;;17.83;;
20589;SDS011;10453;50.810;12.540;2023-01-29T08:49:07;26.43;;;16.67;;
20589;SDS011;10453;50.810;12.540;2023-01-29T08:53:25;27.77;;;16.98;;
20589;SDS011;10453;50.810;12.540;2023-01-29T08:57:42;38.00;;;19.87;;
20589;SDS011;10453;50.810;12.540;2023-01-29T09:01:59;30.77;;;17.70;;
20589;SDS011;10453;50.810;12.540;2023-01-29T09:06:16;47.90;;;24.87;;
20589;SDS011;10453;50.810;12.540;2023-01-29T09:10:33;37.20;;;20.75;;
20589;SDS011;10453;50.810;12.540;2023-01-29T09:14:51;26.40;;;16.67;;
20589;SDS011;10453;50.810;12.540;2023-01-29T09:19:08;28.13;;;17.80;;
20589;SDS011;10453;50.810;12.540;2023-01-29T09:23:25;26.17;;;16.20;;
20589;SDS011;10453;50.810;12.540;2023-01-29T09:27:42;26.70;;;16.20;;
20589;SDS011;10453;50.810;12.540;2023-01-29T09:31:59;23.38;;;15.48;;
20589;SDS011;10453;50.810;12.540;2023-01-29T09:36:16;25.20;;;16.20;;
20589;SDS011;10453;50.810;12.540;2023-01-29T09:45:12;23.70;;;14.55;;
20589;SDS011;10453;50.810;12.540;2023-01-29T09:49:37;23.30;;;15.07;;
20589;SDS011;10453;50.810;12.540;2023-01-29T09:54:09;24.88;;;15.98;;
20589;SDS011;10453;50.810;12.540;2023-01-29T09:58:40;25.30;;;15.63;;
20589;SDS011;10453;50.810;12.540;2023-01-29T10:12:27;26.25;;;15.75;;
20589;SDS011;10453;50.810;12.540;2023-01-29T10:21:36;41.47;;;20.83;;
20589;SDS011;10453;50.810;12.540;2023-01-29T10:26:03;25.33;;;15.95;;
20589;SDS011;10453;50.810;12.540;2023-01-29T10:30:22;24.70;;;14.73;;
20589;SDS011;10453;50.810;12.540;2023-01-29T10:34:47;23.63;;;15.77;;
20589;SDS011;10453;50.810;12.540;2023-01-29T10:39:17;26.58;;;16.70;;
20589;SDS011;10453;50.810;12.540;2023-01-29T10:43:53;25.23;;;16.77;;
20589;SDS011;10453;50.810;12.540;2023-01-29T10:48:53;22.42;;;15.00;;
20589;SDS011;10453;50.810;12.540;2023-01-29T10:58:33;26.52;;;15.82;;
20589;SDS011;10453;50.810;12.540;2023-01-29T11:02:54;24.50;;;16.83;;
20589;SDS011;10453;50.810;12.540;2023-01-29T11:07:12;25.30;;;16.45;;
20589;SDS011;10453;50.810;12.540;2023-01-29T11:11:34;25.05;;;16.75;;
20589;SDS011;10453;50.810;12.540;2023-01-29T11:16:03;24.60;;;15.32;;
20589;SDS011;10453;50.810;12.540;2023-01-29T11:20:27;26.80;;;16.60;;
20589;SDS011;10453;50.810;12.540;2023-01-29T11:24:46;24.73;;;15.82;;
20589;SDS011;10453;50.810;12.540;2023-01-29T11:33:43;25.23;;;17.27;;
20589;SDS011;10453;50.810;12.540;2023-01-29T11:38:05;29.30;;;19.35;;
20589;SDS011;10453;50.810;12.540;2023-01-29T11:42:33;23.95;;;14.90;;
20589;SDS011;10453;50.810;12.540;2023-01-29T11:46:50;24.30;;;15.85;;
20589;SDS011;10453;50.810;12.540;2023-01-29T11:51:09;22.70;;;15.55;;
20589;SDS011;10453;50.810;12.540;2023-01-29T11:55:31;26.30;;;16.55;;
20589;SDS011;10453;50.810;12.540;2023-01-29T12:00:09;24.92;;;15.07;;
20589;SDS011;10453;50.810;12.540;2023-01-29T12:04:34;22.05;;;15.00;;
20589;SDS011;10453;50.810;12.540;2023-01-29T12:08:56;25.52;;;15.63;;
20589;SDS011;10453;50.810;12.540;2023-01-29T12:13:52;23.17;;;15.38;;
20589;SDS011;10453;50.810;12.540;2023-01-29T12:18:07;26.48;;;17.20;;
20589;SDS011;10453;50.810;12.540;2023-01-29T12:23:00;19.38;;;15.05;;
20589;SDS011;10453;50.810;12.540;2023-01-29T12:27:27;21.30;;;16.33;;
20589;SDS011;10453;50.810;12.540;2023-01-29T12:32:10;31.85;;;22.50;;
20589;SDS011;10453;50.810;12.540;2023-01-29T12:36:37;19.25;;;14.07;;
20589;SDS011;10453;50.810;12.540;2023-01-29T12:45:40;36.55;;;20.88;;
20589;SDS011;10453;50.810;12.540;2023-01-29T12:50:01;27.17;;;18.65;;
20589;SDS011;10453;50.810;12.540;2023-01-29T12:54:26;21.92;;;14.75;;
20589;SDS011;10453;50.810;12.540;2023-01-29T12:58:51;25.23;;;17.80;;
20589;SDS011;10453;50.810;12.540;2023-01-29T13:03:15;23.35;;;15.02;;
20589;SDS011;10453;50.810;12.540;2023-01-29T13:07:36;20.52;;;14.40;;
20589;SDS011;10453;50.810;12.540;2023-01-29T13:12:07;18.45;;;13.68;;
20589;SDS011;10453;50.810;12.540;2023-01-29T13:16:34;23.85;;;14.63;;
20589;SDS011;10453;50.810;12.540;2023-01-29T13:20:57;22.15;;;14.85;;
20589;SDS011;10453;50.810;12.540;2023-01-29T13:25:16;24.15;;;16.02;;
20589;SDS011;10453;50.810;12.540;2023-01-29T13:29:34;22.75;;;15.18;;
20589;SDS011;10453;50.810;12.540;2023-01-29T13:33:54;23.38;;;14.75;;
20589;SDS011;10453;50.810;12.540;2023-01-29T13:38:31;24.98;;;17.08;;
20589;SDS011;10453;50.810;12.540;2023-01-29T13:42:51;65.68;;;32.08;;
20589;SDS011;10453;50.810;12.540;2023-01-29T13:47:10;23.05;;;14.70;;
20589;SDS011;10453;50.810;12.540;2023-01-29T13:51:43;24.63;;;15.43;;
20589;SDS011;10453;50.810;12.540;2023-01-29T14:00:48;21.50;;;13.73;;
20589;SDS011;10453;50.810;12.540;2023-01-29T14:14:49;25.17;;;14.88;;
20589;SDS011;10453;50.810;12.540;2023-01-29T14:19:05;22.25;;;14.10;;
20589;SDS011;10453;50.810;12.540;2023-01-29T14:23:35;25.88;;;14.32;;
20589;SDS011;10453;50.810;12.540;2023-01-29T14:27:57;21.02;;;14.55;;
20589;SDS011;10453;50.810;12.540;2023-01-29T14:32:20;25.17;;;15.18;;
20589;SDS011;10453;50.810;12.540;2023-01-29T14:36:41;22.15;;;14.65;;
20589;SDS011;10453;50.810;12.540;2023-01-29T14:45:40;20.80;;;13.82;;
20589;SDS011;10453;50.810;12.540;2023-01-29T14:50:00;24.30;;;14.27;;
20589;SDS011;10453;50.810;12.540;2023-01-29T14:54:24;22.05;;;13.90;;
20589;SDS011;10453;50.810;12.540;2023-01-29T14:58:44;20.60;;;13.63;;
20589;SDS011;10453;50.810;12.540;2023-01-29T15:03:11;22.65;;;14.05;;
20589;SDS011;10453;50.810;12.540;2023-01-29T15:07:38;26.27;;;14.00;;
20589;SDS011;10453;50.810;12.540;2023-01-29T15:12:04;25.38;;;15.55;;
20589;SDS011;10453;50.810;12.540;2023-01-29T15:16:44;22.02;;;14.43;;
20589;SDS011;10453;50.810;12.540;2023-01-29T15:21:17;24.85;;;16.10;;
20589;SDS011;10453;50.810;12.540;2023-01-29T15:25:35;22.52;;;14.57;;
20589;SDS011;10453;50.810;12.540;2023-01-29T15:30:03;23.20;;;13.65;;
20589;SDS011;10453;50.810;12.540;2023-01-29T15:34:21;24.15;;;14.40;;
20589;SDS011;10453;50.810;12.540;2023-01-29T15:38:39;20.33;;;13.80;;
20589;SDS011;10453;50.810;12.540;2023-01-29T15:42:56;25.65;;;16.00;;
20589;SDS011;10453;50.810;12.540;2023-01-29T15:47:13;26.88;;;15.68;;
20589;SDS011;10453;50.810;12.540;2023-01-29T15:51:31;32.60;;;19.58;;
20589;SDS011;10453;50.810;12.540;2023-01-29T15:55:48;22.15;;;14.57;;
20589;SDS011;10453;50.810;12.540;2023-01-29T16:00:07;23.20;;;14.43;;
20589;SDS011;10453;50.810;12.540;2023-01-29T16:04:37;23.95;;;14.68;;
20589;SDS011;10453;50.810;12.540;2023-01-29T16:08:55;23.40;;;14.43;;
20589;SDS011;10453;50.810;12.540;2023-01-29T16:13:17;23.50;;;14.37;;
20589;SDS011;10453;50.810;12.540;2023-01-29T16:17:40;33.40;;;17.60;;
20589;SDS011;10453;50.810;12.540;2023-01-29T16:21:58;23.65;;;13.27;;
20589;SDS011;10453;50.810;12.540;2023-01-29T16:26:23;22.48;;;13.60;;
20589;SDS011;10453;50.810;12.540;2023-01-29T16:30:43;24.80;;;15.02;;
20589;SDS011;10453;50.810;12.540;2023-01-29T16:35:01;27.05;;;16.38;;
20589;SDS011;10453;50.810;12.540;2023-01-29T16:39:19;24.17;;;14.20;;
20589;SDS011;10453;50.810;12.540;2023-01-29T16:47:59;24.42;;;15.02;;
20589;SDS011;10453;50.810;12.540;2023-01-29T16:56:46;22.88;;;13.98;;
20589;SDS011;10453;50.810;12.540;2023-01-29T17:01:08;23.73;;;14.40;;
20589;SDS011;10453;50.810;12.540;2023-01-29T17:05:27;36.15;;;18.73;;
20589;SDS011;10453;50.810;12.540;2023-01-29T17:09:57;29.77;;;16.88;;
20589;SDS011;10453;50.810;12.540;2023-01-29T17:14:17;25.17;;;16.25;;
20589;SDS011;10453;50.810;12.540;2023-01-29T17:18:35;26.77;;;15.73;;
20589;SDS011;10453;50.810;12.540;2023-01-29T17:22:52;24.90;;;14.53;;
20589;SDS011;10453;50.810;12.540;2023-01-29T17:27:11;22.77;;;14.23;;
20589;SDS011;10453;50.810;12.540;2023-01-29T17:31:34;26.23;;;15.38;;
20589;SDS011;10453;50.810;12.540;2023-01-29T17:35:52;25.48;;;15.48;;
20589;SDS011;10453;50.810;12.540;2023-01-29T17:40:15;27.53;;;15.50;;
20589;SDS011;10453;50.810;12.540;2023-01-29T17:44:37;30.13;;;19.42;;
20589;SDS011;10453;50.810;12.540;2023-01-29T17:48:54;24.05;;;15.07;;
20589;SDS011;10453;50.810;12.540;2023-01-29T17:53:12;23.93;;;15.10;;
20589;SDS011;10453;50.810;12.540;2023-01-29T17:57:32;26.35;;;14.45;;
20589;SDS011;10453;50.810;12.540;2023-01-29T18:01:49;26.70;;;16.33;;
20589;SDS011;10453;50.810;12.540;2023-01-29T18:10:25;26.15;;;14.23;;
20589;SDS011;10453;50.810;12.540;2023-01-29T18:14:42;24.00;;;14.83;;
20589;SDS011;10453;50.810;12.540;2023-01-29T18:18:59;25.47;;;15.50;;
20589;SDS011;10453;50.810;12.540;2023-01-29T18:23:16;30.10;;;15.38;;
20589;SDS011;10453;50.810;12.540;2023-01-29T18:27:33;26.63;;;14.83;;
20589;SDS011;10453;50.810;12.540;2023-01-29T18:31:51;24.03;;;14.37;;
20589;SDS011;10453;50.810;12.540;2023-01-29T18:36:08;24.77;;;14.83;;
20589;SDS011;10453;50.810;12.540;2023-01-29T18:40:29;26.95;;;14.45;;
20589;SDS011;10453;50.810;12.540;2023-01-29T18:44:47;27.77;;;14.32;;
20589;SDS011;10453;50.810;12.540;2023-01-29T18:49:04;27.53;;;15.07;;
20589;SDS011;10453;50.810;12.540;2023-01-29T18:53:22;23.63;;;14.57;;
20589;SDS011;10453;50.810;12.540;2023-01-29T18:57:39;29.93;;;16.67;;
20589;SDS011;10453;50.810;12.540;2023-01-29T19:02:17;21.30;;;13.90;;
20589;SDS011;10453;50.810;12.540;2023-01-29T19:06:37;25.20;;;14.68;;
20589;SDS011;10453;50.810;12.540;2023-01-29T19:10:55;28.30;;;16.83;;
20589;SDS011;10453;50.810;12.540;2023-01-29T19:15:13;32.90;;;18.45;;
20589;SDS011;10453;50.810;12.540;2023-01-29T19:19:32;25.17;;;15.48;;
20589;SDS011;10453;50.810;12.540;2023-01-29T19:23:49;27.03;;;15.77;;
20589;SDS011;10453;50.810;12.540;2023-01-29T19:28:06;26.27;;;15.75;;
20589;SDS011;10453;50.810;12.540;2023-01-29T19:36:41;25.42;;;15.52;;
20589;SDS011;10453;50.810;12.540;2023-01-29T19:40:58;28.83;;;16.50;;
20589;SDS011;10453;50.810;12.540;2023-01-29T19:45:16;34.33;;;17.27;;
20589;SDS011;10453;50.810;12.540;2023-01-29T19:49:52;32.42;;;16.83;;
20589;SDS011;10453;50.810;12.540;2023-01-29T19:54:09;24.80;;;15.10;;
20589;SDS011;10453;50.810;12.540;2023-01-29T19:58:27;26.50;;;15.13;;
20589;SDS011;10453;50.810;12.540;2023-01-29T20:02:44;28.33;;;15.80;;
20589;SDS011;10453;50.810;12.540;2023-01-29T20:07:02;30.83;;;18.87;;
20589;SDS011;10453;50.810;12.540;2023-01-29T20:11:20;26.77;;;15.40;;
20589;SDS011;10453;50.810;12.540;2023-01-29T20:15:44;56.65;;;26.25;;
20589;SDS011;10453;50.810;12.540;2023-01-29T20:20:03;31.63;;;16.98;;
20589;SDS011;10453;50.810;12.540;2023-01-29T20:24:21;30.50;;;17.33;;
20589;SDS011;10453;50.810;12.540;2023-01-29T20:28:39;27.55;;;15.98;;
20589;SDS011;10453;50.810;12.540;2023-01-29T20:32:57;29.67;;;16.17;;
20589;SDS011;10453;50.810;12.540;2023-01-29T20:37:14;29.73;;;15.98;;
20589;SDS011;10453;50.810;12.540;2023-01-29T20:41:31;31.40;;;17.70;;
20589;SDS011;10453;50.810;12.540;2023-01-29T20:45:48;29.93;;;17.10;;
20589;SDS011;10453;50.810;12.540;2023-01-29T20:50:05;25.60;;;15.63;;
20589;SDS011;10453;50.810;12.540;2023-01-29T20:54:24;32.35;;;18.15;;
20589;SDS011;10453;50.810;12.540;2023-01-29T20:58:41;31.20;;;17.20;;
20589;SDS011;10453;50.810;12.540;2023-01-29T21:02:58;31.33;;;17.40;;
20589;SDS011;10453;50.810;12.540;2023-01-29T21:07:15;33.13;;;17.90;;
20589;SDS011;10453;50.810;12.540;2023-01-29T21:11:33;29.33;;;16.87;;
20589;SDS011;10453;50.810;12.540;2023-01-29T21:15:50;29.53;;;17.20;;
20589;SDS011;10453;50.810;12.540;2023-01-29T21:20:07;29.90;;;17.20;;
20589;SDS011;10453;50.810;12.540;2023-01-29T21:24:25;32.67;;;17.45;;
20589;SDS011;10453;50.810;12.540;2023-01-29T21:28:42;30.53;;;16.07;;
20589;SDS011;10453;50.810;12.540;2023-01-29T21:37:17;30.10;;;16.98;;
20589;SDS011;10453;50.810;12.540;2023-01-29T21:41:34;29.47;;;16.23;;
20589;SDS011;10453;50.810;12.540;2023-01-29T21:46:10;28.67;;;16.38;;
20589;SDS011;10453;50.810;12.540;2023-01-29T21:50:28;33.13;;;17.67;;
20589;SDS011;10453;50.810;12.540;2023-01-29T21:54:45;33.67;;;16.57;;
20589;SDS011;10453;50.810;12.540;2023-01-29T21:59:04;33.55;;;18.67;;
20589;SDS011;10453;50.810;12.540;2023-01-29T22:03:22;30.77;;;17.67;;
20589;SDS011;10453;50.810;12.540;2023-01-29T22:07:39;31.70;;;16.88;;
20589;SDS011;10453;50.810;12.540;2023-01-29T22:11:56;28.27;;;16.27;;
20589;SDS011;10453;50.810;12.540;2023-01-29T22:16:14;27.55;;;15.68;;
20589;SDS011;10453;50.810;12.540;2023-01-29T22:20:31;26.30;;;15.23;;
20589;SDS011;10453;50.810;12.540;2023-01-29T22:24:48;28.17;;;16.33;;
20589;SDS011;10453;50.810;12.540;2023-01-29T22:29:09;29.73;;;15.48;;
20589;SDS011;10453;50.810;12.540;2023-01-29T22:33:28;34.65;;;16.83;;
20589;SDS011;10453;50.810;12.540;2023-01-29T22:37:45;27.35;;;15.02;;
20589;SDS011;10453;50.810;12.540;2023-01-29T22:42:03;24.35;;;14.50;;
20589;SDS011;10453;50.810;12.540;2023-01-29T22:46:20;27.27;;;15.00;;
20589;SDS011;10453;50.810;12.540;2023-01-29T22:50:37;29.07;;;15.23;;
20589;SDS011;10453;50.810;12.540;2023-01-29T22:54:55;27.58;;;15.40;;
20589;SDS011;10453;50.810;12.540;2023-01-29T22:59:12;26.20;;;14.93;;
20589;SDS011;10453;50.810;12.540;2023-01-29T23:03:31;26.93;;;14.73;;
20589;SDS011;10453;50.810;12.540;2023-01-29T23:07:48;24.83;;;14.75;;
20589;SDS011;10453;50.810;12.540;2023-01-29T23:12:05;28.83;;;14.33;;
20589;SDS011;10453;50.810;12.540;2023-01-29T23:20:43;26.23;;;15.02;;
20589;SDS011;10453;50.810;12.540;2023-01-29T23:25:00;23.77;;;13.30;;
20589;SDS011;10453;50.810;12.540;2023-01-29T23:29:18;25.50;;;13.80;;
20589;SDS011;10453;50.810;12.540;2023-01-29T23:33:35;23.93;;;13.67;;
20589;SDS011;10453;50.810;12.540;2023-01-29T23:37:52;27.03;;;13.97;;
20589;SDS011;10453;50.810;12.540;2023-01-29T23:42:09;24.43;;;14.10;;
20589;SDS011;10453;50.810;12.540;2023-01-29T23:46:26;25.43;;;15.17;;
20589;SDS011;10453;50.810;12.540;2023-01-29T23:50:44;25.57;;;14.53;;
20589;SDS011;10453;50.810;12.540;2023-01-29T23:55:01;23.10;;;13.85;;
20589;SDS011;10453;50.810;12.540;2023-01-29T23:59:18;27.63;;;14.57;;
